Time;durP1;ratioP1;P1;durP2;ratioP2;P2;SDS_P1;SDS_P2;PMS_P1;PMS_P2;Temp;Humidity;BMP_temperature;BMP_pressure;BME280_temperature;BME280_humidity;BME280_pressure;Samples;Min_cycle;Max_cycle;Signal;HPM_P1;HPM_P2
2021/10/20 00:01:36;;;;;;;9.80;7.00;;;;;;;;;;5027926;28;20581;-71
2021/10/20 00:04:02;;;;;;;9.43;6.85;;;;;;;;;;5018653;28;20259;-71
2021/10/20 00:06:28;;;;;;;10.77;6.13;;;;;;;;;;5026333;28;20609;-71
2021/10/20 00:08:53;;;;;;;8.38;6.70;;;;;;;;;;5016212;28;20241;-71
2021/10/20 00:11:19;;;;;;;10.40;6.03;;;;;;;;;;5027256;28;20517;-71
2021/10/20 00:13:45;;;;;;;8.68;6.13;;;;;;;;;;5018382;28;20190;-71
2021/10/20 00:16:10;;;;;;;7.07;5.63;;;;;;;;;;5019851;28;20255;-69
2021/10/20 00:18:36;;;;;;;11.00;5.45;;;;;;;;;;5020454;28;20751;-69
2021/10/20 00:21:04;;;;;;;12.15;5.85;;;;;;;;;;5023734;28;20652;-70
2021/10/20 00:23:30;;;;;;;6.90;5.40;;;;;;;;;;5017232;28;20190;-70
2021/10/20 00:25:55;;;;;;;7.93;5.60;;;;;;;;;;5028575;28;20194;-70
2021/10/20 00:28:21;;;;;;;7.07;5.43;;;;;;;;;;5023517;28;20209;-69
2021/10/20 00:30:46;;;;;;;8.52;5.65;;;;;;;;;;5012157;28;20259;-69
2021/10/20 00:33:11;;;;;;;7.78;5.47;;;;;;;;;;5026536;28;20764;-69
2021/10/20 00:35:37;;;;;;;6.32;5.30;;;;;;;;;;5016726;28;20193;-69
2021/10/20 00:38:02;;;;;;;9.23;5.50;;;;;;;;;;5026549;28;20193;-69
2021/10/20 00:40:28;;;;;;;8.45;5.70;;;;;;;;;;5011490;28;20217;-69
2021/10/20 00:42:53;;;;;;;6.80;5.45;;;;;;;;;;5025048;28;20734;-70
2021/10/20 00:45:18;;;;;;;9.00;5.07;;;;;;;;;;5019668;28;20198;-69
2021/10/20 00:47:44;;;;;;;8.10;5.18;;;;;;;;;;5026716;28;20214;-69
2021/10/20 00:50:13;;;;;;;9.27;5.65;;;;;;;;;;5013881;28;20646;-70
2021/10/20 00:52:41;;;;;;;7.75;5.20;;;;;;;;;;5026319;28;20194;-71
2021/10/20 00:55:07;;;;;;;7.18;5.13;;;;;;;;;;5016788;28;20634;-70
2021/10/20 00:57:33;;;;;;;8.05;5.30;;;;;;;;;;5026027;28;20265;-70
2021/10/20 01:00:00;;;;;;;9.40;5.18;;;;;;;;;;5024682;28;20182;-70
2021/10/20 01:02:26;;;;;;;7.03;5.50;;;;;;;;;;5017118;28;20641;-70
2021/10/20 01:04:53;;;;;;;6.85;5.18;;;;;;;;;;5025218;28;20182;-70
2021/10/20 01:07:19;;;;;;;7.45;4.95;;;;;;;;;;5016053;28;20251;-70
2021/10/20 01:09:45;;;;;;;8.07;5.38;;;;;;;;;;5024970;28;20190;-70
2021/10/20 01:12:11;;;;;;;7.60;5.35;;;;;;;;;;5013954;28;20193;-70
2021/10/20 01:14:37;;;;;;;6.78;5.18;;;;;;;;;;5027120;28;20186;-72
2021/10/20 01:17:02;;;;;;;10.52;5.07;;;;;;;;;;5017658;28;20269;-73
2021/10/20 01:19:28;;;;;;;7.13;5.05;;;;;;;;;;5026186;28;20264;-70
2021/10/20 01:21:54;;;;;;;7.35;4.75;;;;;;;;;;5018033;28;20182;-70
2021/10/20 01:24:21;;;;;;;10.50;5.13;;;;;;;;;;5025371;28;20182;-70
2021/10/20 01:26:51;;;;;;;6.32;4.75;;;;;;;;;;5015458;28;20331;-71
2021/10/20 01:29:16;;;;;;;6.82;5.03;;;;;;;;;;5025145;28;20582;-70
2021/10/20 01:31:49;;;;;;;7.13;4.70;;;;;;;;;;5014877;28;20193;-70
2021/10/20 01:34:15;;;;;;;8.90;4.97;;;;;;;;;;5023440;28;20645;-70
2021/10/20 01:36:42;;;;;;;8.80;4.72;;;;;;;;;;5018630;28;20193;-70
2021/10/20 01:39:08;;;;;;;7.43;4.93;;;;;;;;;;5018297;28;20182;-70
2021/10/20 01:41:34;;;;;;;7.97;5.10;;;;;;;;;;5022065;28;20568;-70
2021/10/20 01:44:00;;;;;;;5.53;4.65;;;;;;;;;;5018275;28;20281;-70
2021/10/20 01:46:25;;;;;;;6.07;4.50;;;;;;;;;;5022978;28;20645;-71
2021/10/20 01:48:51;;;;;;;6.38;4.68;;;;;;;;;;5016479;28;20221;-70
2021/10/20 01:51:16;;;;;;;5.45;4.53;;;;;;;;;;5021921;28;20190;-70
2021/10/20 01:53:42;;;;;;;7.45;4.70;;;;;;;;;;5018014;28;20218;-70
2021/10/20 01:56:09;;;;;;;9.10;4.88;;;;;;;;;;5023076;28;20217;-71
2021/10/20 01:58:35;;;;;;;7.28;4.88;;;;;;;;;;5017317;28;20204;-70
2021/10/20 02:01:00;;;;;;;7.90;4.70;;;;;;;;;;5022864;28;20233;-70
2021/10/20 02:03:27;;;;;;;6.55;4.68;;;;;;;;;;5015647;28;20201;-72
2021/10/20 02:05:54;;;;;;;4.88;4.38;;;;;;;;;;5023162;28;20650;-70
2021/10/20 02:08:20;;;;;;;6.03;4.43;;;;;;;;;;5021546;28;20206;-73
2021/10/20 02:10:46;;;;;;;6.82;4.30;;;;;;;;;;5016727;28;20190;-70
2021/10/20 02:13:11;;;;;;;6.32;4.55;;;;;;;;;;5021612;28;20224;-70
2021/10/20 02:15:36;;;;;;;5.65;4.38;;;;;;;;;;5014622;28;20549;-70
2021/10/20 02:18:02;;;;;;;7.80;4.15;;;;;;;;;;5022761;28;20257;-71
2021/10/20 02:20:27;;;;;;;6.20;4.28;;;;;;;;;;5013989;28;20209;-71
2021/10/20 02:22:53;;;;;;;6.68;4.78;;;;;;;;;;5021884;28;20204;-70
2021/10/20 02:25:19;;;;;;;5.45;4.05;;;;;;;;;;5013055;28;20197;-70
2021/10/20 02:27:44;;;;;;;6.57;4.50;;;;;;;;;;5024538;28;20216;-70
2021/10/20 02:30:10;;;;;;;7.75;5.07;;;;;;;;;;5012097;28;20205;-72
2021/10/20 02:32:35;;;;;;;6.75;4.60;;;;;;;;;;5018709;28;20661;-70
2021/10/20 02:35:02;;;;;;;7.40;4.20;;;;;;;;;;5013743;28;20209;-70
2021/10/20 02:37:28;;;;;;;6.53;4.25;;;;;;;;;;5022324;28;20674;-72
2021/10/20 02:39:53;;;;;;;8.20;4.55;;;;;;;;;;5021199;28;20237;-70
2021/10/20 02:42:18;;;;;;;7.90;4.60;;;;;;;;;;5009975;28;20190;-70
2021/10/20 02:44:44;;;;;;;9.45;4.85;;;;;;;;;;5020464;28;20216;-71
2021/10/20 02:47:09;;;;;;;6.50;4.90;;;;;;;;;;5014660;28;20297;-70
2021/10/20 02:49:34;;;;;;;7.03;4.70;;;;;;;;;;5025809;28;20197;-70
2021/10/20 02:52:00;;;;;;;9.15;5.30;;;;;;;;;;5015435;28;20186;-71
2021/10/20 02:54:25;;;;;;;6.43;4.93;;;;;;;;;;5023802;28;20190;-70
2021/10/20 02:56:50;;;;;;;6.47;4.75;;;;;;;;;;5018820;28;20202;-72
2021/10/20 02:59:16;;;;;;;7.25;4.65;;;;;;;;;;5023813;28;20284;-71
2021/10/20 03:01:41;;;;;;;8.23;4.88;;;;;;;;;;5016033;28;20236;-71
2021/10/20 03:04:07;;;;;;;8.02;4.22;;;;;;;;;;5026386;28;20567;-70
2021/10/20 03:06:32;;;;;;;6.38;4.30;;;;;;;;;;5018511;28;20190;-71
2021/10/20 03:08:58;;;;;;;6.57;5.40;;;;;;;;;;5026134;28;20214;-70
2021/10/20 03:11:24;;;;;;;7.28;4.95;;;;;;;;;;5024813;28;20199;-70
2021/10/20 03:13:49;;;;;;;6.97;4.43;;;;;;;;;;5019103;28;20600;-69
2021/10/20 03:16:14;;;;;;;7.20;4.80;;;;;;;;;;5019074;28;20213;-71
2021/10/20 03:18:40;;;;;;;6.55;5.35;;;;;;;;;;5020051;28;20212;-69
2021/10/20 03:21:05;;;;;;;7.78;5.00;;;;;;;;;;5026577;28;20252;-69
2021/10/20 03:23:31;;;;;;;6.00;5.05;;;;;;;;;;5020709;28;20183;-68
2021/10/20 03:25:56;;;;;;;9.88;4.95;;;;;;;;;;5024520;28;20197;-69
2021/10/20 03:28:21;;;;;;;8.95;4.75;;;;;;;;;;5020083;28;20228;-69
2021/10/20 03:30:47;;;;;;;9.60;5.38;;;;;;;;;;5025177;28;20261;-69
2021/10/20 03:33:12;;;;;;;6.28;5.22;;;;;;;;;;5016548;28;20285;-70
2021/10/20 03:35:37;;;;;;;7.18;4.68;;;;;;;;;;5024448;28;20277;-69
2021/10/20 03:38:05;;;;;;;6.15;4.50;;;;;;;;;;5018347;28;20184;-70
2021/10/20 03:40:31;;;;;;;6.30;4.70;;;;;;;;;;5021184;28;20760;-69
2021/10/20 03:42:56;;;;;;;5.85;4.40;;;;;;;;;;5027856;28;20208;-68
2021/10/20 03:45:22;;;;;;;6.25;4.60;;;;;;;;;;5016277;28;20563;-69
2021/10/20 03:47:48;;;;;;;7.38;5.10;;;;;;;;;;5026609;28;20244;-69
2021/10/20 03:50:13;;;;;;;5.60;4.32;;;;;;;;;;5015422;28;20279;-71
2021/10/20 03:52:38;;;;;;;8.73;4.82;;;;;;;;;;5024238;28;20251;-71
2021/10/20 03:55:04;;;;;;;7.75;5.70;;;;;;;;;;5015761;28;20631;-69
2021/10/20 03:57:38;;;;;;;7.25;5.10;;;;;;;;;;5029886;28;20201;-70
2021/10/20 04:00:06;;;;;;;7.65;5.03;;;;;;;;;;5015767;28;20277;-71
2021/10/20 04:02:32;;;;;;;6.25;5.05;;;;;;;;;;5025907;28;20230;-69
2021/10/20 04:04:57;;;;;;;7.07;5.18;;;;;;;;;;5016030;28;20221;-71
2021/10/20 04:07:23;;;;;;;5.53;4.80;;;;;;;;;;5025879;28;20323;-71
2021/10/20 04:09:48;;;;;;;7.97;5.00;;;;;;;;;;5017174;28;20252;-70
2021/10/20 04:12:13;;;;;;;7.22;5.15;;;;;;;;;;5024031;28;20186;-69
2021/10/20 04:14:39;;;;;;;8.18;5.38;;;;;;;;;;5021107;28;20276;-70
2021/10/20 04:17:04;;;;;;;9.05;4.93;;;;;;;;;;5013679;28;20605;-71
2021/10/20 04:19:29;;;;;;;7.43;5.13;;;;;;;;;;5024413;28;20204;-71
2021/10/20 04:21:55;;;;;;;7.88;5.82;;;;;;;;;;5013205;28;20260;-70
2021/10/20 04:24:20;;;;;;;10.15;5.38;;;;;;;;;;5022379;28;20202;-69
2021/10/20 04:26:45;;;;;;;9.10;5.95;;;;;;;;;;5017336;28;20185;-70
2021/10/20 04:29:11;;;;;;;9.38;5.97;;;;;;;;;;5022193;28;20205;-69
2021/10/20 04:31:36;;;;;;;11.15;6.57;;;;;;;;;;5013486;28;20638;-69
2021/10/20 04:34:01;;;;;;;12.23;6.45;;;;;;;;;;5023212;28;20631;-70
2021/10/20 04:36:27;;;;;;;10.32;6.68;;;;;;;;;;5014709;28;20392;-69
2021/10/20 04:38:52;;;;;;;7.85;6.03;;;;;;;;;;5022449;28;20622;-70
2021/10/20 04:41:17;;;;;;;11.35;6.00;;;;;;;;;;5012355;28;20312;-69
2021/10/20 04:43:43;;;;;;;10.80;6.40;;;;;;;;;;5020573;28;20182;-70
2021/10/20 04:46:08;;;;;;;9.82;6.45;;;;;;;;;;5025072;28;20186;-71
2021/10/20 04:48:33;;;;;;;10.80;6.47;;;;;;;;;;5017513;28;20206;-69
2021/10/20 04:50:59;;;;;;;9.88;7.22;;;;;;;;;;5021446;28;20182;-70
2021/10/20 04:53:24;;;;;;;10.38;6.93;;;;;;;;;;5014695;28;20182;-70
2021/10/20 04:55:49;;;;;;;10.38;7.32;;;;;;;;;;5024827;28;20217;-71
2021/10/20 04:58:15;;;;;;;10.18;6.72;;;;;;;;;;5017218;28;20186;-70
2021/10/20 05:00:40;;;;;;;12.43;7.25;;;;;;;;;;5023197;28;20217;-69
2021/10/20 05:03:06;;;;;;;10.45;6.90;;;;;;;;;;5014832;28;20200;-71
2021/10/20 05:05:31;;;;;;;13.68;8.00;;;;;;;;;;5021983;28;20276;-74
2021/10/20 05:07:58;;;;;;;10.18;6.95;;;;;;;;;;5013603;28;20202;-70
2021/10/20 05:10:26;;;;;;;9.73;6.90;;;;;;;;;;5026414;28;20178;-70
2021/10/20 05:12:52;;;;;;;10.55;6.55;;;;;;;;;;5015038;28;20325;-70
2021/10/20 05:15:19;;;;;;;9.73;6.60;;;;;;;;;;5028758;28;20189;-70
2021/10/20 05:17:45;;;;;;;11.75;7.28;;;;;;;;;;5023938;28;20185;-70
2021/10/20 05:20:12;;;;;;;11.57;6.70;;;;;;;;;;5015838;28;20194;-71
2021/10/20 05:22:39;;;;;;;9.02;6.45;;;;;;;;;;5019271;28;20205;-71
2021/10/20 05:25:06;;;;;;;10.48;6.97;;;;;;;;;;5016388;28;20193;-69
2021/10/20 05:27:32;;;;;;;8.30;6.55;;;;;;;;;;5021028;28;20313;-70
2021/10/20 05:29:57;;;;;;;9.13;6.20;;;;;;;;;;5016556;28;20308;-70
2021/10/20 05:32:26;;;;;;;8.30;6.35;;;;;;;;;;4327797;28;10000834;-70
2021/10/20 05:34:52;;;;;;;9.73;6.43;;;;;;;;;;5013062;28;20190;-70
2021/10/20 05:37:17;;;;;;;9.00;6.32;;;;;;;;;;5018396;28;20184;-70
2021/10/20 05:39:42;;;;;;;10.05;7.00;;;;;;;;;;5012523;28;20220;-70
2021/10/20 05:42:08;;;;;;;8.80;6.05;;;;;;;;;;5019531;28;20649;-70
2021/10/20 05:44:33;;;;;;;15.85;6.88;;;;;;;;;;5013621;28;20194;-70
2021/10/20 05:46:59;;;;;;;12.85;6.47;;;;;;;;;;5015977;28;20189;-70
2021/10/20 05:49:24;;;;;;;11.55;7.03;;;;;;;;;;5019086;28;20206;-70
2021/10/20 05:51:49;;;;;;;14.70;6.32;;;;;;;;;;5007635;28;20687;-70
2021/10/20 05:54:15;;;;;;;8.45;6.03;;;;;;;;;;5021451;28;20273;-71
2021/10/20 05:56:40;;;;;;;14.70;7.65;;;;;;;;;;5011921;28;20232;-69
2021/10/20 05:59:05;;;;;;;9.95;6.93;;;;;;;;;;5022144;28;20588;-72
2021/10/20 06:01:31;;;;;;;7.88;5.90;;;;;;;;;;5008731;28;20231;-70
2021/10/20 06:03:57;;;;;;;10.00;6.80;;;;;;;;;;5020166;28;20823;-70
2021/10/20 06:06:24;;;;;;;9.50;6.28;;;;;;;;;;5008840;28;20310;-70
2021/10/20 06:08:50;;;;;;;12.43;6.45;;;;;;;;;;5016024;28;20677;-71
2021/10/20 06:11:15;;;;;;;9.07;6.68;;;;;;;;;;5007669;28;20279;-71
2021/10/20 06:13:40;;;;;;;9.55;6.38;;;;;;;;;;5020101;28;20260;-70
2021/10/20 06:16:05;;;;;;;9.35;6.97;;;;;;;;;;5010447;28;20186;-70
2021/10/20 06:18:31;;;;;;;9.15;6.55;;;;;;;;;;5020359;28;20591;-71
2021/10/20 06:20:57;;;;;;;8.95;6.97;;;;;;;;;;5015118;28;20675;-70
2021/10/20 06:23:22;;;;;;;10.25;7.03;;;;;;;;;;5002220;28;20216;-70
2021/10/20 06:25:48;;;;;;;12.20;7.38;;;;;;;;;;5019375;28;20200;-70
2021/10/20 06:28:13;;;;;;;10.77;6.57;;;;;;;;;;5011648;28;20305;-71
2021/10/20 06:30:38;;;;;;;13.00;6.45;;;;;;;;;;5017228;28;20268;-71
2021/10/20 06:33:04;;;;;;;11.10;6.30;;;;;;;;;;5010353;28;20186;-69
2021/10/20 06:35:30;;;;;;;9.57;6.35;;;;;;;;;;5019242;28;20185;-69
2021/10/20 06:37:55;;;;;;;10.27;6.65;;;;;;;;;;5013350;28;20260;-71
2021/10/20 06:40:22;;;;;;;12.02;6.75;;;;;;;;;;5016058;28;20256;-72
2021/10/20 06:42:47;;;;;;;10.82;6.32;;;;;;;;;;5015639;28;20197;-70
2021/10/20 06:45:12;;;;;;;8.75;6.13;;;;;;;;;;5015979;28;20239;-70
2021/10/20 06:47:38;;;;;;;9.60;6.63;;;;;;;;;;5015821;28;20216;-70
2021/10/20 06:50:05;;;;;;;8.10;5.95;;;;;;;;;;5019588;28;20182;-70
2021/10/20 06:52:30;;;;;;;10.07;6.75;;;;;;;;;;5023126;28;20651;-70
2021/10/20 06:54:55;;;;;;;10.85;6.38;;;;;;;;;;5014270;28;20217;-70
2021/10/20 06:57:21;;;;;;;12.35;6.60;;;;;;;;;;5026892;28;20548;-69
2021/10/20 06:59:46;;;;;;;10.40;6.50;;;;;;;;;;5013565;28;20629;-70
2021/10/20 07:02:12;;;;;;;9.68;6.45;;;;;;;;;;5018777;28;20261;-70
2021/10/20 07:04:37;;;;;;;7.50;5.90;;;;;;;;;;5015285;28;20847;-70
2021/10/20 07:07:04;;;;;;;12.65;6.93;;;;;;;;;;5021057;28;20268;-70
2021/10/20 07:09:30;;;;;;;8.18;6.18;;;;;;;;;;5014869;28;20220;-70
2021/10/20 07:11:57;;;;;;;10.20;6.15;;;;;;;;;;5021082;28;20226;-71
2021/10/20 07:14:23;;;;;;;8.68;6.50;;;;;;;;;;5011065;28;20657;-71
2021/10/20 07:16:48;;;;;;;9.38;6.57;;;;;;;;;;5020116;28;20281;-70
2021/10/20 07:19:14;;;;;;;12.18;6.40;;;;;;;;;;5011052;28;20186;-71
2021/10/20 07:21:39;;;;;;;9.80;6.35;;;;;;;;;;5018333;28;20264;-71
2021/10/20 07:24:05;;;;;;;12.35;6.63;;;;;;;;;;5022699;28;20548;-71
2021/10/20 07:26:30;;;;;;;10.73;6.03;;;;;;;;;;5016052;28;20198;-70
2021/10/20 07:28:56;;;;;;;11.55;6.03;;;;;;;;;;5022173;28;20210;-71
2021/10/20 07:31:21;;;;;;;8.32;6.13;;;;;;;;;;5009446;28;20749;-71
2021/10/20 07:33:46;;;;;;;9.63;6.35;;;;;;;;;;5018832;28;20645;-71
2021/10/20 07:36:12;;;;;;;10.77;6.10;;;;;;;;;;5013223;28;20276;-70
2021/10/20 07:38:37;;;;;;;10.05;5.70;;;;;;;;;;4674996;28;9999911;-72
2021/10/20 07:41:03;;;;;;;8.80;6.10;;;;;;;;;;5012028;28;20191;-71
2021/10/20 07:43:29;;;;;;;8.20;6.28;;;;;;;;;;5022541;28;20642;-70
2021/10/20 07:45:55;;;;;;;8.25;5.78;;;;;;;;;;5009565;28;20267;-71
2021/10/20 07:48:21;;;;;;;8.48;6.18;;;;;;;;;;5013327;28;20202;-72
2021/10/20 07:50:46;;;;;;;8.07;5.88;;;;;;;;;;5010519;28;20200;-70
2021/10/20 07:53:11;;;;;;;11.80;6.68;;;;;;;;;;5013433;28;20309;-69
2021/10/20 07:55:37;;;;;;;7.07;5.70;;;;;;;;;;5019002;28;20186;-69
2021/10/20 07:58:02;;;;;;;7.07;5.65;;;;;;;;;;5013143;28;20700;-70
2021/10/20 08:00:28;;;;;;;9.85;5.93;;;;;;;;;;5019064;28;20190;-70
2021/10/20 08:02:55;;;;;;;7.63;5.47;;;;;;;;;;5013009;28;20601;-70
2021/10/20 08:05:21;;;;;;;7.95;5.40;;;;;;;;;;5020797;28;20186;-72
2021/10/20 08:07:46;;;;;;;16.15;6.43;;;;;;;;;;5011972;28;20202;-69
2021/10/20 08:10:14;;;;;;;6.97;5.55;;;;;;;;;;5020741;28;20406;-69
2021/10/20 08:12:40;;;;;;;7.65;5.43;;;;;;;;;;5008454;28;20201;-69
2021/10/20 08:15:07;;;;;;;8.25;5.80;;;;;;;;;;5021794;28;20511;-69
2021/10/20 08:17:33;;;;;;;8.27;5.85;;;;;;;;;;5013770;28;20190;-70
2021/10/20 08:19:58;;;;;;;10.45;5.68;;;;;;;;;;5020659;28;20178;-70
2021/10/20 08:22:23;;;;;;;12.00;6.07;;;;;;;;;;5014384;28;20529;-70
2021/10/20 08:24:49;;;;;;;10.48;6.47;;;;;;;;;;5022269;28;20182;-70
2021/10/20 08:27:14;;;;;;;11.35;6.28;;;;;;;;;;5025672;28;20260;-70
2021/10/20 08:29:39;;;;;;;7.45;5.45;;;;;;;;;;5011397;28;20256;-69
2021/10/20 08:32:07;;;;;;;8.60;5.68;;;;;;;;;;5026637;28;20320;-70
2021/10/20 08:34:33;;;;;;;10.10;6.07;;;;;;;;;;5014335;28;20209;-72
2021/10/20 08:36:58;;;;;;;8.20;5.82;;;;;;;;;;5024977;28;20189;-70
2021/10/20 08:39:24;;;;;;;7.72;6.10;;;;;;;;;;5016961;28;20491;-70
2021/10/20 08:41:49;;;;;;;9.40;6.53;;;;;;;;;;5022414;28;20240;-70
2021/10/20 08:44:15;;;;;;;10.05;6.57;;;;;;;;;;5017894;28;20220;-72
2021/10/20 08:46:41;;;;;;;8.98;6.28;;;;;;;;;;5020525;28;20505;-70
2021/10/20 08:49:09;;;;;;;9.07;6.75;;;;;;;;;;5014315;28;20228;-71
2021/10/20 08:51:35;;;;;;;11.63;6.15;;;;;;;;;;5019636;28;20190;-70
2021/10/20 08:54:01;;;;;;;13.35;7.20;;;;;;;;;;5011960;28;20281;-71
2021/10/20 08:56:27;;;;;;;9.88;6.80;;;;;;;;;;5021182;28;20206;-70
2021/10/20 08:58:53;;;;;;;7.85;6.43;;;;;;;;;;5019172;28;20774;-71
2021/10/20 09:01:18;;;;;;;10.90;7.45;;;;;;;;;;5015858;28;20233;-69
2021/10/20 09:03:44;;;;;;;8.85;6.70;;;;;;;;;;5021597;28;21527;-72
2021/10/20 09:06:10;;;;;;;10.25;6.88;;;;;;;;;;5013458;28;20181;-71
2021/10/20 09:08:46;;;;;;;11.27;7.05;;;;;;;;;;5021251;28;20252;-71
2021/10/20 09:11:33;;;;;;;10.88;7.40;;;;;;;;;;5015879;28;20196;-72
2021/10/20 09:14:04;;;;;;;10.70;6.50;;;;;;;;;;5019992;28;20229;-74
2021/10/20 09:16:30;;;;;;;8.93;6.55;;;;;;;;;;5014196;28;20642;-74
2021/10/20 09:18:57;;;;;;;11.27;6.43;;;;;;;;;;5022346;28;20206;-75
2021/10/20 09:21:24;;;;;;;11.30;6.28;;;;;;;;;;5014022;28;20182;-74
2021/10/20 09:23:49;;;;;;;9.27;6.57;;;;;;;;;;5020828;28;20178;-75
2021/10/20 09:26:14;;;;;;;8.57;6.32;;;;;;;;;;5009884;28;20310;-73
2021/10/20 09:28:40;;;;;;;7.43;6.22;;;;;;;;;;5017185;28;20214;-72
2021/10/20 09:31:07;;;;;;;10.20;6.93;;;;;;;;;;5012314;28;20202;-73
2021/10/20 09:33:36;;;;;;;9.70;6.75;;;;;;;;;;5019931;28;20182;-73
2021/10/20 09:36:03;;;;;;;12.32;6.93;;;;;;;;;;5013718;28;20342;-72
2021/10/20 09:38:33;;;;;;;8.38;6.60;;;;;;;;;;5018670;28;20185;-73
2021/10/20 09:41:03;;;;;;;11.63;6.90;;;;;;;;;;5017817;28;20182;-72
2021/10/20 09:43:28;;;;;;;10.80;6.28;;;;;;;;;;5011126;28;20189;-72
2021/10/20 09:45:54;;;;;;;11.18;6.85;;;;;;;;;;5019265;28;20668;-73
2021/10/20 09:48:23;;;;;;;9.18;6.50;;;;;;;;;;5013154;28;20229;-76
2021/10/20 09:51:04;;;;;;;11.45;7.45;;;;;;;;;;5019539;28;20268;-72
2021/10/20 09:53:35;;;;;;;11.85;6.93;;;;;;;;;;5009954;28;20325;-72
2021/10/20 09:56:22;;;;;;;12.48;6.80;;;;;;;;;;5022044;28;20213;-74
2021/10/20 09:58:49;;;;;;;8.48;6.65;;;;;;;;;;5008852;28;20244;-73
2021/10/20 10:01:17;;;;;;;11.60;6.43;;;;;;;;;;5011214;28;20875;-72
2021/10/20 10:03:42;;;;;;;10.20;6.30;;;;;;;;;;5006436;28;20194;-75
2021/10/20 10:06:08;;;;;;;11.30;6.75;;;;;;;;;;5011454;28;20221;-70
2021/10/20 10:08:33;;;;;;;10.00;6.85;;;;;;;;;;5008443;28;20240;-73
2021/10/20 10:10:59;;;;;;;10.38;7.10;;;;;;;;;;5014380;28;20186;-73
2021/10/20 10:13:29;;;;;;;9.55;5.97;;;;;;;;;;5006932;28;20214;-72
2021/10/20 10:15:55;;;;;;;8.38;6.40;;;;;;;;;;5012597;28;20197;-71
2021/10/20 10:18:22;;;;;;;9.50;7.75;;;;;;;;;;5009472;28;20193;-71
2021/10/20 10:20:48;;;;;;;8.80;6.75;;;;;;;;;;5012686;28;20716;-71
2021/10/20 10:23:25;;;;;;;6.78;6.03;;;;;;;;;;5015177;28;20265;-72
2021/10/20 10:26:16;;;;;;;10.18;6.82;;;;;;;;;;5015094;28;20279;-74
2021/10/20 10:28:42;;;;;;;10.85;6.97;;;;;;;;;;5006857;28;20237;-71
2021/10/20 10:31:10;;;;;;;10.05;6.75;;;;;;;;;;5014346;28;20198;-74
2021/10/20 10:33:50;;;;;;;10.23;6.85;;;;;;;;;;5013878;28;20228;-71
2021/10/20 10:36:19;;;;;;;9.95;7.53;;;;;;;;;;5012785;28;20178;-72
2021/10/20 10:38:49;;;;;;;9.45;6.85;;;;;;;;;;5014958;28;20620;-72
2021/10/20 10:41:23;;;;;;;10.18;7.03;;;;;;;;;;5006800;28;20205;-73
2021/10/20 10:44:12;;;;;;;8.15;6.85;;;;;;;;;;5013831;28;20252;-73
2021/10/20 10:46:54;;;;;;;10.93;7.50;;;;;;;;;;5006687;28;20187;-72
2021/10/20 10:49:25;;;;;;;7.18;6.43;;;;;;;;;;5015111;28;20221;-71
2021/10/20 10:52:06;;;;;;;9.50;6.70;;;;;;;;;;5002608;28;20197;-72
2021/10/20 10:54:35;;;;;;;7.72;6.90;;;;;;;;;;5013725;28;20194;-73
2021/10/20 10:57:11;;;;;;;7.95;6.68;;;;;;;;;;5006065;28;20697;-72
2021/10/20 10:59:36;;;;;;;8.25;6.53;;;;;;;;;;5015828;28;21282;-74
2021/10/20 11:02:02;;;;;;;9.55;6.47;;;;;;;;;;5006372;28;20329;-73
2021/10/20 11:04:35;;;;;;;9.60;6.18;;;;;;;;;;5015199;28;20187;-71
2021/10/20 11:07:03;;;;;;;9.90;6.88;;;;;;;;;;5007569;28;20281;-71
2021/10/20 11:09:31;;;;;;;9.88;6.40;;;;;;;;;;5017320;28;20202;-72
2021/10/20 11:11:58;;;;;;;10.77;6.03;;;;;;;;;;5013224;28;20194;-74
2021/10/20 11:14:25;;;;;;;9.52;6.47;;;;;;;;;;5022338;28;20281;-72
2021/10/20 11:17:04;;;;;;;9.63;5.60;;;;;;;;;;5031896;28;20285;-70
2021/10/20 11:19:30;;;;;;;9.90;6.53;;;;;;;;;;5028249;28;20486;-74
2021/10/20 11:21:57;;;;;;;9.40;6.00;;;;;;;;;;5018050;28;20218;-72
2021/10/20 11:24:23;;;;;;;9.05;6.20;;;;;;;;;;5027123;28;20178;-73
2021/10/20 11:26:50;;;;;;;10.27;6.22;;;;;;;;;;5017974;28;20233;-73
2021/10/20 11:29:16;;;;;;;7.30;6.28;;;;;;;;;;5024278;28;20218;-73
2021/10/20 11:31:56;;;;;;;8.65;6.38;;;;;;;;;;5022107;28;20190;-75
2021/10/20 11:34:24;;;;;;;9.27;6.43;;;;;;;;;;5018198;28;20198;-73
2021/10/20 11:36:50;;;;;;;9.82;6.55;;;;;;;;;;5025226;28;20178;-72
2021/10/20 11:39:16;;;;;;;10.30;6.20;;;;;;;;;;5020624;28;20280;-75
2021/10/20 11:41:50;;;;;;;6.68;5.93;;;;;;;;;;5025305;28;20281;-75
2021/10/20 11:44:24;;;;;;;9.88;5.95;;;;;;;;;;5018440;28;20186;-75
2021/10/20 11:46:49;;;;;;;7.90;6.38;;;;;;;;;;5024257;28;20669;-74
2021/10/20 11:49:15;;;;;;;9.38;6.50;;;;;;;;;;5016363;28;20232;-74
2021/10/20 11:51:42;;;;;;;6.93;5.80;;;;;;;;;;5027806;28;20186;-72
2021/10/20 11:54:08;;;;;;;13.18;5.85;;;;;;;;;;5014869;28;20190;-75
2021/10/20 11:56:33;;;;;;;8.75;6.25;;;;;;;;;;5024266;28;20251;-74
2021/10/20 11:58:59;;;;;;;6.45;5.55;;;;;;;;;;5018823;28;20214;-72
2021/10/20 12:01:24;;;;;;;9.98;5.78;;;;;;;;;;5024563;28;20225;-75
2021/10/20 12:03:49;;;;;;;7.63;5.68;;;;;;;;;;5010927;28;21992;-72
2021/10/20 12:06:21;;;;;;;8.13;5.63;;;;;;;;;;5027069;28;20178;-77
2021/10/20 12:08:48;;;;;;;7.28;5.85;;;;;;;;;;5018908;28;20206;-72
2021/10/20 12:11:21;;;;;;;10.10;6.03;;;;;;;;;;5025735;28;20216;-72
2021/10/20 12:13:47;;;;;;;8.48;5.80;;;;;;;;;;5026887;28;20712;-74
2021/10/20 12:16:15;;;;;;;7.40;5.72;;;;;;;;;;5017126;28;20266;-71
2021/10/20 12:18:43;;;;;;;8.68;5.68;;;;;;;;;;5021041;28;20178;-72
2021/10/20 12:21:11;;;;;;;8.13;5.50;;;;;;;;;;5016692;28;20218;-74
2021/10/20 12:23:37;;;;;;;8.45;5.13;;;;;;;;;;5025591;28;20186;-74
2021/10/20 12:26:04;;;;;;;7.03;5.18;;;;;;;;;;5018164;28;20205;-72
2021/10/20 12:28:30;;;;;;;7.97;5.38;;;;;;;;;;5024390;28;20213;-72
2021/10/20 12:30:55;;;;;;;8.93;5.00;;;;;;;;;;5015256;28;20191;-72
2021/10/20 12:33:22;;;;;;;9.02;5.00;;;;;;;;;;5027491;28;20225;-72
2021/10/20 12:35:49;;;;;;;7.55;5.22;;;;;;;;;;5016004;28;20311;-73
2021/10/20 12:38:16;;;;;;;8.88;5.88;;;;;;;;;;5024761;28;20274;-73
2021/10/20 12:40:42;;;;;;;9.38;5.43;;;;;;;;;;5013678;28;20182;-72
2021/10/20 12:43:11;;;;;;;5.63;5.05;;;;;;;;;;5022647;28;20535;-71
2021/10/20 12:45:36;;;;;;;8.40;5.30;;;;;;;;;;5022699;28;20247;-71
2021/10/20 12:48:07;;;;;;;9.02;5.28;;;;;;;;;;5015141;28;20221;-74
2021/10/20 12:50:36;;;;;;;7.28;5.32;;;;;;;;;;5026366;28;20189;-75
2021/10/20 12:53:01;;;;;;;9.10;5.68;;;;;;;;;;5013766;28;20205;-74
2021/10/20 12:55:28;;;;;;;7.22;5.25;;;;;;;;;;5022590;28;20194;-72
2021/10/20 12:57:59;;;;;;;6.75;5.28;;;;;;;;;;5011674;28;20217;-72
2021/10/20 13:00:27;;;;;;;7.28;5.35;;;;;;;;;;5020072;28;20193;-74
2021/10/20 13:02:53;;;;;;;6.47;5.15;;;;;;;;;;5014963;28;20612;-74
2021/10/20 13:05:20;;;;;;;6.68;5.70;;;;;;;;;;5020104;28;20658;-73
2021/10/20 13:07:46;;;;;;;9.63;5.18;;;;;;;;;;5015031;28;20229;-76
2021/10/20 13:10:18;;;;;;;8.77;4.93;;;;;;;;;;5020030;28;20186;-75
2021/10/20 13:12:49;;;;;;;6.82;4.85;;;;;;;;;;5013432;28;20233;-73
2021/10/20 13:15:15;;;;;;;6.82;5.22;;;;;;;;;;5019439;28;20202;-73
2021/10/20 13:17:41;;;;;;;10.57;5.38;;;;;;;;;;5014537;28;21556;-77
2021/10/20 13:20:09;;;;;;;10.15;4.95;;;;;;;;;;5022565;28;20204;-76
2021/10/20 13:22:35;;;;;;;5.93;5.10;;;;;;;;;;5037134;28;20244;-75
2021/10/20 13:25:01;;;;;;;6.95;5.05;;;;;;;;;;5012972;28;20646;-74
2021/10/20 13:27:26;;;;;;;6.97;5.38;;;;;;;;;;5025392;28;20186;-73
2021/10/20 13:29:52;;;;;;;8.10;5.00;;;;;;;;;;5013728;28;20305;-75
2021/10/20 13:32:18;;;;;;;8.50;5.68;;;;;;;;;;5021256;28;20205;-76
2021/10/20 13:34:43;;;;;;;10.30;5.63;;;;;;;;;;5016624;28;20213;-70
2021/10/20 13:37:08;;;;;;;8.77;5.60;;;;;;;;;;5021022;28;20205;-75
2021/10/20 13:39:34;;;;;;;7.45;5.43;;;;;;;;;;5016691;28;20182;-73
2021/10/20 13:42:01;;;;;;;8.07;5.82;;;;;;;;;;5021360;28;20244;-74
2021/10/20 13:44:27;;;;;;;6.90;5.80;;;;;;;;;;5012816;28;20221;-74
2021/10/20 13:46:52;;;;;;;6.72;5.60;;;;;;;;;;5023088;28;20235;-74
2021/10/20 13:49:17;;;;;;;6.85;5.47;;;;;;;;;;5014933;28;21181;-75
2021/10/20 13:51:43;;;;;;;8.02;5.30;;;;;;;;;;5023060;28;20608;-74
2021/10/20 13:54:09;;;;;;;6.47;5.35;;;;;;;;;;5022116;28;20186;-74
2021/10/20 13:56:35;;;;;;;5.72;4.90;;;;;;;;;;5019188;28;20268;-71
2021/10/20 13:59:00;;;;;;;7.25;4.90;;;;;;;;;;5023608;28;20182;-71
2021/10/20 14:01:25;;;;;;;7.53;5.53;;;;;;;;;;5013993;28;20238;-74
2021/10/20 14:03:51;;;;;;;8.07;6.15;;;;;;;;;;5021445;28;20239;-71
2021/10/20 14:06:17;;;;;;;9.02;6.30;;;;;;;;;;5013852;28;20212;-74
2021/10/20 14:08:42;;;;;;;8.32;6.20;;;;;;;;;;5023544;28;20248;-72
2021/10/20 14:11:08;;;;;;;7.72;6.05;;;;;;;;;;5011795;28;20202;-73
2021/10/20 14:13:33;;;;;;;8.77;6.13;;;;;;;;;;5025788;28;20275;-74
2021/10/20 14:15:59;;;;;;;7.70;5.80;;;;;;;;;;4662861;28;10000590;-74
2021/10/20 14:18:28;;;;;;;8.70;6.57;;;;;;;;;;5019127;28;20188;-74
2021/10/20 14:20:53;;;;;;;8.80;6.68;;;;;;;;;;5004684;28;20186;-73
2021/10/20 14:23:19;;;;;;;9.07;6.45;;;;;;;;;;5018065;28;20198;-71
2021/10/20 14:25:44;;;;;;;7.78;6.18;;;;;;;;;;5010100;28;20194;-72
2021/10/20 14:28:10;;;;;;;7.35;6.10;;;;;;;;;;5020869;28;20576;-74
2021/10/20 14:30:35;;;;;;;9.73;6.00;;;;;;;;;;5017570;28;20193;-71
2021/10/20 14:33:00;;;;;;;8.27;5.63;;;;;;;;;;5011323;28;20194;-72
2021/10/20 14:35:26;;;;;;;6.78;5.40;;;;;;;;;;5016382;28;20285;-71